Time;durP1;ratioP1;P1;durP2;ratioP2;P2;SDS_P1;SDS_P2;PMS_P1;PMS_P2;Temp;Humidity;BMP_temperature;BMP_pressure;BME280_temperature;BME280_humidity;BME280_pressure;Samples;Min_cycle;Max_cycle;Signal;HPM_P1;HPM_P2
2023/08/05 00:01:22;;;;;;;4.47;4.07;;;14.10;99.90;13.50;100207;;;;582589;242;24042;-78
2023/08/05 00:03:53;;;;;;;5.23;4.03;;;14.00;99.90;13.40;100210;;;;583292;242;24073;-80
2023/08/05 00:06:22;;;;;;;5.87;4.13;;;14.00;99.90;13.40;100212;;;;585088;242;24053;-81
2023/08/05 00:08:47;;;;;;;7.30;3.97;;;14.00;99.90;13.40;100212;;;;585314;242;24108;-79
2023/08/05 00:11:15;;;;;;;5.77;4.27;;;14.00;99.90;13.40;100202;;;;585534;242;24045;-80
2023/08/05 00:13:43;;;;;;;6.13;4.33;;;14.00;99.90;13.40;100206;;;;586007;242;24115;-78
2023/08/05 00:16:11;;;;;;;5.43;3.77;;;14.00;99.90;13.40;100204;;;;585930;242;24068;-79
2023/08/05 00:18:39;;;;;;;5.90;4.00;;;14.00;99.90;13.40;100209;;;;585917;242;24158;-78
2023/08/05 00:21:07;;;;;;;5.07;3.97;;;13.90;99.90;13.40;100202;;;;586051;242;24173;-80
2023/08/05 00:23:35;;;;;;;9.40;4.77;;;14.00;99.90;13.40;100204;;;;586072;242;24087;-80
2023/08/05 00:26:07;;;;;;;9.03;4.57;;;14.00;99.90;13.50;100205;;;;586123;242;24138;-81
2023/08/05 00:28:31;;;;;;;9.97;4.47;;;14.00;99.90;13.50;100210;;;;585852;240;24091;-80
2023/08/05 00:30:59;;;;;;;10.47;6.63;;;14.00;99.90;13.60;100204;;;;582286;241;44721;-82
2023/08/05 00:33:27;;;;;;;9.53;5.07;;;14.10;99.90;13.70;100215;;;;587205;241;24040;-80
2023/08/05 00:35:55;;;;;;;9.55;6.78;;;14.20;99.90;13.80;100216;;;;581684;241;57025;-80
2023/08/05 00:38:23;;;;;;;6.37;5.37;;;14.30;99.90;13.70;100222;;;;586500;241;24056;-81
2023/08/05 00:40:51;;;;;;;7.23;4.57;;;14.20;99.90;13.80;100222;;;;586154;241;24114;-80
2023/08/05 00:43:22;;;;;;;6.17;4.57;;;14.30;99.90;13.70;100218;;;;586532;241;24175;-80
2023/08/05 00:45:47;;;;;;;5.13;4.57;;;14.30;99.90;13.70;100220;;;;586138;241;24131;-78
2023/08/05 00:48:16;;;;;;;6.33;5.17;;;14.20;99.90;13.80;100221;;;;586505;241;24102;-79
2023/08/05 00:50:44;;;;;;;9.45;7.03;;;14.30;99.90;13.70;100225;;;;581230;241;35191;-81
2023/08/05 00:53:15;;;;;;;7.10;6.27;;;14.20;99.90;13.70;100231;;;;586398;241;24182;-82
2023/08/05 00:55:39;;;;;;;6.47;4.97;;;14.20;99.90;13.80;100229;;;;585930;241;24084;-80
2023/08/05 00:58:07;;;;;;;5.83;5.00;;;14.20;99.90;13.80;100231;;;;586063;241;24077;-81
2023/08/05 01:00:35;;;;;;;7.77;4.73;;;14.30;99.90;13.80;100231;;;;593829;241;25184;-80
2023/08/05 01:03:03;;;;;;;7.10;5.33;;;14.30;99.90;13.70;100241;;;;586416;241;24099;-80
2023/08/05 01:05:32;;;;;;;8.63;4.63;;;14.20;99.90;13.70;100229;;;;593752;242;24075;-81
2023/08/05 01:08:03;;;;;;;7.40;5.13;;;14.20;99.90;13.60;100231;;;;581357;245;24078;-80
2023/08/05 01:10:28;;;;;;;10.87;5.50;;;14.10;99.90;13.50;100219;;;;574722;245;24126;-81
2023/08/05 01:12:56;;;;;;;5.40;4.57;;;14.10;99.90;13.50;100225;;;;574657;246;24119;-79
2023/08/05 01:15:24;;;;;;;10.07;4.83;;;14.00;99.90;13.40;100229;;;;574959;246;24089;-81
2023/08/05 01:17:55;;;;;;;4.83;4.30;;;14.00;99.90;13.40;100234;;;;575110;246;24076;-81
2023/08/05 01:20:20;;;;;;;6.30;4.43;;;13.90;99.90;13.40;100233;;;;575008;246;24086;-81
2023/08/05 01:22:48;;;;;;;5.83;4.47;;;13.90;99.90;13.30;100231;;;;581094;246;24140;-79
2023/08/05 01:25:30;;;;;;;5.30;4.73;;;13.90;99.90;13.30;100227;;;;575282;246;24101;-81
2023/08/05 01:27:58;;;;;;;9.80;6.95;;;13.80;99.90;13.20;100235;;;;579324;246;35221;-79
2023/08/05 01:30:26;;;;;;;7.47;5.40;;;13.80;99.90;13.10;100231;;;;575210;246;24076;-81
2023/08/05 01:32:58;;;;;;;8.73;4.53;;;13.70;99.90;13.10;100233;;;;580982;247;24137;-80
2023/08/05 01:35:25;;;;;;;6.40;4.30;;;13.60;99.90;13.00;100233;;;;553626;256;24155;-85
2023/08/05 01:37:54;;;;;;;4.90;4.43;;;13.50;99.90;12.90;100227;;;;574690;246;24195;-81
2023/08/05 01:40:18;;;;;;;6.60;4.77;;;13.50;99.90;12.90;100236;;;;574613;243;24127;-81
2023/08/05 01:42:46;;;;;;;5.97;5.47;;;13.40;99.90;12.80;100233;;;;576040;246;24067;-79
2023/08/05 01:45:14;;;;;;;6.83;5.23;;;13.40;99.90;12.80;100244;;;;585587;245;24121;-80
2023/08/05 01:47:42;;;;;;;7.97;4.63;;;13.30;99.90;12.70;100244;;;;575789;246;24052;-80
2023/08/05 01:50:12;;;;;;;5.70;5.30;;;13.20;99.90;12.60;100234;;;;575705;246;24111;-81
2023/08/05 01:52:38;;;;;;;7.50;5.13;;;13.20;99.90;12.60;100232;;;;583907;243;24077;-80
2023/08/05 01:55:08;;;;;;;4.73;4.30;;;13.10;99.90;12.50;100237;;;;572550;248;24066;-82
2023/08/05 01:57:33;;;;;;;11.93;4.57;;;13.10;99.90;12.50;100229;;;;583952;243;24064;-81
2023/08/05 02:00:02;;;;;;;6.87;4.83;;;13.00;99.90;12.40;100227;;;;574958;246;24096;-82
2023/08/05 02:02:35;;;;;;;5.30;4.43;;;12.90;99.90;12.40;100229;;;;574586;246;24093;-81
2023/08/05 02:04:59;;;;;;;6.90;4.80;;;12.90;99.90;12.40;100236;;;;562943;251;24136;-83
2023/08/05 02:07:27;;;;;;;6.90;4.30;;;12.90;99.90;12.40;100235;;;;574620;245;24073;-79
2023/08/05 02:09:55;;;;;;;5.53;4.90;;;12.90;99.90;12.30;100232;;;;571371;248;24119;-80
2023/08/05 02:12:22;;;;;;;8.47;5.37;;;12.90;99.90;12.30;100231;;;;574700;243;24049;-79
2023/08/05 02:14:50;;;;;;;9.17;5.77;;;12.80;99.90;12.30;100229;;;;571980;248;24113;-78
2023/08/05 02:17:21;;;;;;;5.60;4.97;;;12.80;99.90;12.20;100214;;;;575077;246;24045;-80
2023/08/05 02:19:48;;;;;;;13.20;5.13;;;12.80;99.90;12.20;100218;;;;571726;248;24077;-79
2023/08/05 02:22:16;;;;;;;7.53;5.40;;;12.80;99.90;12.20;100214;;;;574852;245;24084;-79
2023/08/05 02:24:44;;;;;;;7.00;4.90;;;12.70;99.90;12.20;100209;;;;574741;246;24128;-80
2023/08/05 02:27:11;;;;;;;9.37;4.80;;;12.70;99.90;12.20;100207;;;;574608;246;24065;-78
2023/08/05 02:29:39;;;;;;;8.97;5.47;;;12.70;99.90;12.10;100207;;;;574399;246;24110;-79
2023/08/05 02:32:11;;;;;;;10.33;4.90;;;12.70;99.90;12.20;100209;;;;571166;248;24085;-79
2023/08/05 02:34:35;;;;;;;5.47;4.87;;;12.70;99.90;12.10;100203;;;;579696;246;24169;-78
2023/08/05 02:37:03;;;;;;;6.37;4.93;;;12.70;99.90;12.10;100206;;;;574553;245;24071;-78
2023/08/05 02:39:32;;;;;;;5.33;4.40;;;12.70;99.90;12.10;100205;;;;574750;245;24066;-77
2023/08/05 02:41:59;;;;;;;6.77;4.87;;;12.70;99.90;12.10;100211;;;;574512;246;24145;-79
2023/08/05 02:44:27;;;;;;;10.43;5.30;;;12.70;99.90;12.20;100214;;;;574265;246;24148;-79
2023/08/05 02:46:55;;;;;;;7.90;5.37;;;12.70;99.90;12.20;100218;;;;574845;246;24068;-77
2023/08/05 02:49:23;;;;;;;8.70;4.80;;;12.80;99.90;12.30;100212;;;;575601;246;24057;-79
2023/08/05 02:51:51;;;;;;;6.53;5.10;;;12.80;99.90;12.30;100213;;;;575600;246;24142;-77
2023/08/05 02:54:19;;;;;;;7.90;5.30;;;12.80;99.90;12.20;100210;;;;573306;247;24118;-78
2023/08/05 02:56:47;;;;;;;7.27;4.50;;;12.80;99.90;12.20;100212;;;;576067;245;24122;-78
2023/08/05 02:59:15;;;;;;;5.17;4.77;;;12.80;99.90;12.20;100213;;;;572232;248;24070;-81
2023/08/05 03:01:44;;;;;;;7.47;4.63;;;12.80;99.90;12.30;100214;;;;572037;248;24087;-78
2023/08/05 03:04:13;;;;;;;6.20;5.60;;;12.80;99.90;12.20;100218;;;;574987;246;24093;-80
2023/08/05 03:06:41;;;;;;;7.10;5.20;;;12.70;99.90;12.20;100221;;;;575034;246;24071;-78
2023/08/05 03:09:09;;;;;;;6.63;4.90;;;12.70;99.90;12.20;100219;;;;574969;246;24108;-79
2023/08/05 03:11:38;;;;;;;5.17;4.67;;;12.70;99.90;12.20;100220;;;;571775;248;24104;-79
2023/08/05 03:14:06;;;;;;;9.23;5.23;;;12.70;99.90;12.20;100224;;;;553519;256;24194;-79
2023/08/05 03:16:34;;;;;;;6.83;4.97;;;12.70;99.90;12.20;100220;;;;575154;246;25329;-80
2023/08/05 03:19:02;;;;;;;6.33;5.20;;;12.70;99.90;12.30;100219;;;;574952;246;24121;-79
2023/08/05 03:21:30;;;;;;;7.87;4.60;;;12.80;99.90;12.30;100219;;;;571989;248;24082;-79
2023/08/05 03:23:59;;;;;;;6.30;4.60;;;12.80;99.90;12.30;100220;;;;574914;245;24086;-78
2023/08/05 03:26:27;;;;;;;14.13;5.17;;;12.80;99.90;12.30;100212;;;;571925;246;24078;-78
2023/08/05 03:28:55;;;;;;;5.47;4.90;;;12.80;99.90;12.40;100220;;;;574888;246;24112;-78
2023/08/05 03:31:23;;;;;;;7.80;4.10;;;12.80;99.90;12.40;100220;;;;571634;248;24052;-79
2023/08/05 03:33:51;;;;;;;5.13;4.53;;;12.90;99.90;12.40;100232;;;;574682;245;24121;-76
2023/08/05 03:36:19;;;;;;;8.20;4.37;;;12.90;99.90;12.50;100231;;;;574796;246;24105;-79
2023/08/05 03:38:48;;;;;;;11.83;4.40;;;13.00;99.90;12.60;100232;;;;574785;246;24103;-77
2023/08/05 03:41:16;;;;;;;8.90;4.30;;;13.00;99.90;12.60;100240;;;;574556;246;24065;-78
2023/08/05 03:43:44;;;;;;;5.97;4.77;;;13.10;99.90;12.70;100247;;;;579258;248;24114;-78
2023/08/05 03:46:12;;;;;;;8.03;4.90;;;13.20;99.90;12.80;100248;;;;574808;246;24076;-80
2023/08/05 03:48:40;;;;;;;4.47;4.07;;;13.20;99.90;12.90;100246;;;;574636;246;24143;-79
2023/08/05 03:51:08;;;;;;;4.63;4.23;;;13.30;99.90;13.00;100253;;;;571601;248;24157;-80
2023/08/05 03:53:36;;;;;;;8.23;3.57;;;13.40;99.90;13.10;100255;;;;574578;245;24071;-79
2023/08/05 03:56:04;;;;;;;6.80;3.90;;;13.50;99.90;13.20;100246;;;;575003;246;24148;-78
2023/08/05 03:58:32;;;;;;;7.27;4.27;;;13.70;99.90;13.40;100256;;;;571584;248;24090;-80
2023/08/05 04:01:01;;;;;;;9.60;4.80;;;13.80;99.90;13.90;100255;;;;573847;246;24174;-78
2023/08/05 04:03:31;;;;;;;7.07;4.40;;;14.30;99.90;14.10;100260;;;;590758;242;24132;-83
2023/08/05 04:05:56;;;;;;;5.63;4.33;;;14.60;99.90;14.10;100256;;;;584575;244;24103;-78
2023/08/05 04:08:26;;;;;;;4.50;4.10;;;14.70;99.90;14.30;100255;;;;591782;241;24080;-78
2023/08/05 04:10:53;;;;;;;7.47;4.43;;;14.70;99.90;14.80;100261;;;;572732;247;24157;-79
2023/08/05 04:13:24;;;;;;;7.07;4.40;;;15.20;99.90;15.90;100267;;;;585283;243;24139;-79
2023/08/05 04:15:53;;;;;;;6.07;4.83;;;16.30;99.90;17.20;100276;;;;585047;245;24096;-79
2023/08/05 04:18:18;;;;;;;4.93;4.43;;;17.60;99.90;18.50;100281;;;;592787;241;24105;-83
2023/08/05 04:20:48;;;;;;;8.00;3.97;;;18.90;99.90;19.70;100290;;;;592782;241;24107;-80
2023/08/05 04:23:18;;;;;;;3.30;3.10;;;20.20;99.90;20.80;100281;;;;592576;241;23104;-78
2023/08/05 04:25:43;;;;;;;7.83;3.03;;;21.50;99.90;21.80;100275;;;;592212;242;24143;-80
2023/08/05 04:28:11;;;;;;;2.27;2.07;;;22.60;99.90;22.70;100266;;;;590736;241;24089;-78
2023/08/05 04:30:39;;;;;;;5.43;2.40;;;23.50;99.90;23.60;100261;;;;580457;246;24115;-78
2023/08/05 04:33:10;;;;;;;4.27;2.00;;;24.50;99.90;24.40;100265;;;;566271;252;24178;-77
2023/08/05 04:35:34;;;;;;;3.53;2.40;;;25.40;99.90;25.20;100274;;;;584035;242;23096;-78
2023/08/05 04:38:02;;;;;;;4.23;2.20;;;26.10;99.90;26.00;100262;;;;575781;245;23114;-78
2023/08/05 04:40:30;;;;;;;4.47;1.93;;;27.00;99.90;26.70;100258;;;;575838;245;23090;-76
2023/08/05 04:42:58;;;;;;;2.15;1.98;;;27.80;99.90;27.30;100264;;;;574955;246;24123;-77
2023/08/05 04:45:26;;;;;;;3.67;2.15;;;28.40;99.90;28.00;100268;;;;575010;246;23105;-77
2023/08/05 04:47:54;;;;;;;1.92;1.83;;;29.10;99.90;28.80;100271;;;;575226;245;23141;-80
2023/08/05 04:50:22;;;;;;;3.65;2.08;;;29.90;99.90;29.50;100274;;;;575204;246;23100;-82
2023/08/05 04:52:50;;;;;;;2.15;1.95;;;30.60;99.90;30.10;100276;;;;575215;246;23102;-76
2023/08/05 04:55:21;;;;;;;3.50;1.87;;;31.30;97.30;30.80;100274;;;;575088;246;23139;-76
2023/08/05 04:57:46;;;;;;;3.53;1.92;;;32.00;94.10;31.70;100279;;;;574881;246;23136;-83
2023/08/05 05:00:14;;;;;;;2.67;2.28;;;32.20;91.40;32.60;100275;;;;569658;246;35215;-82
2023/08/05 05:02:42;;;;;;;1.80;1.70;;;34.50;80.50;33.40;100270;;;;575035;245;23088;-76
2023/08/05 05:05:11;;;;;;;1.90;1.77;;;34.80;77.00;33.70;100280;;;;574897;246;23184;-77
2023/08/05 05:07:40;;;;;;;1.73;1.62;;;35.20;74.90;34.10;100287;;;;583706;241;23127;-83
2023/08/05 05:10:08;;;;;;;4.57;2.10;;;35.20;74.90;34.70;100285;;;;573519;246;23116;-84
2023/08/05 05:12:35;;;;;;;2.03;1.90;;;35.70;73.50;35.20;100286;;;;583764;246;24110;-84
2023/08/05 05:15:06;;;;;;;1.80;1.70;;;36.20;71.40;35.90;100292;;;;574692;246;24124;-82
2023/08/05 05:17:37;;;;;;;4.53;1.80;;;36.90;69.00;36.40;100299;;;;585233;243;23168;-80
2023/08/05 05:20:08;;;;;;;2.50;1.90;;;37.50;65.90;36.90;100302;;;;585210;245;23161;-83
2023/08/05 05:22:33;;;;;;;2.12;1.92;;;37.90;63.70;37.20;100299;;;;570651;245;35245;-81
2023/08/05 05:25:01;;;;;;;4.90;1.80;;;38.30;60.70;37.30;100301;;;;575996;246;23131;-81
2023/08/05 05:27:29;;;;;;;3.45;1.95;;;38.40;60.00;37.80;100312;;;;575832;246;23127;-81
2023/08/05 05:29:57;;;;;;;4.18;1.80;;;38.70;59.10;38.30;100305;;;;575666;246;23178;-80
2023/08/05 05:32:25;;;;;;;2.50;1.35;;;39.20;58.40;38.90;100305;;;;575639;246;23194;-80
2023/08/05 05:34:53;;;;;;;3.85;1.35;;;39.70;56.60;39.00;100304;;;;576029;246;23091;-78
2023/08/05 05:37:20;;;;;;;2.50;1.67;;;39.90;55.00;39.10;100310;;;;576286;245;23102;-78
2023/08/05 05:39:48;;;;;;;1.15;1.05;;;39.90;54.30;38.60;100324;;;;576247;246;23106;-77
2023/08/05 05:42:16;;;;;;;3.85;1.60;;;39.60;53.70;37.50;100325;;;;576096;246;24180;-80
2023/08/05 05:44:50;;;;;;;1.80;1.27;;;38.70;53.90;36.30;100335;;;;575515;246;23104;-80
2023/08/05 05:47:15;;;;;;;3.03;1.40;;;36.30;56.10;35.00;100334;;;;575899;246;23135;-80
2023/08/05 05:49:41;;;;;;;1.73;1.00;;;36.30;56.10;33.80;100336;;;;576139;246;23175;-78
2023/08/05 05:52:11;;;;;;;1.33;1.20;;;35.00;57.80;32.80;100339;;;;576164;246;23110;-79
2023/08/05 05:54:37;;;;;;;2.40;1.48;;;33.90;59.30;31.90;100330;;;;575719;246;24142;-79
2023/08/05 05:57:09;;;;;;;2.58;1.50;;;32.80;61.30;31.10;100324;;;;575734;245;23153;-80
2023/08/05 05:59:33;;;;;;;3.08;1.50;;;31.20;65.60;30.40;100319;;;;575221;246;23102;-83
2023/08/05 06:02:01;;;;;;;1.60;1.40;;;31.10;65.10;29.70;100308;;;;574803;245;23243;-84
2023/08/05 06:04:30;;;;;;;1.85;0.95;;;30.50;67.30;29.30;100311;;;;574817;246;23237;-84
2023/08/05 06:06:57;;;;;;;1.87;1.35;;;29.90;69.20;29.10;100312;;;;574240;245;23107;-83
2023/08/05 06:09:26;;;;;;;1.40;1.27;;;29.50;70.40;29.10;100317;;;;574652;246;25294;-83
2023/08/05 06:11:53;;;;;;;1.58;1.48;;;29.40;71.30;29.40;100320;;;;574664;246;23147;-82
2023/08/05 06:14:23;;;;;;;1.42;1.30;;;29.60;71.70;29.50;100317;;;;574818;246;23194;-79
2023/08/05 06:16:51;;;;;;;1.75;1.35;;;29.80;71.50;29.70;100325;;;;575393;245;23096;-80
2023/08/05 06:19:19;;;;;;;1.23;1.17;;;29.90;70.80;29.80;100309;;;;575578;246;23126;-82
2023/08/05 06:21:48;;;;;;;6.40;1.40;;;30.10;70.20;29.70;100314;;;;575144;246;23084;-82
2023/08/05 06:24:16;;;;;;;2.45;1.02;;;30.00;70.10;29.50;100317;;;;575129;246;23114;-81
2023/08/05 06:26:44;;;;;;;2.25;1.02;;;29.90;69.20;29.20;100317;;;;574984;246;23145;-83
2023/08/05 06:29:12;;;;;;;1.58;1.20;;;29.70;67.40;28.70;100313;;;;576325;246;23092;-83
2023/08/05 06:31:40;;;;;;;1.33;1.20;;;29.30;67.60;28.40;100311;;;;576072;246;23162;-82
2023/08/05 06:34:08;;;;;;;3.87;1.40;;;29.00;67.70;28.30;100314;;;;575973;246;25143;-81
2023/08/05 06:36:35;;;;;;;4.22;1.48;;;28.70;68.90;28.40;100315;;;;575914;246;24126;-80
2023/08/05 06:39:03;;;;;;;1.65;1.00;;;28.70;70.40;28.70;100325;;;;575650;246;23113;-81
2023/08/05 06:41:31;;;;;;;1.33;1.23;;;29.00;69.30;29.40;100331;;;;576694;246;24134;-83
2023/08/05 06:43:59;;;;;;;1.17;0.90;;;29.60;68.00;30.50;100333;;;;575874;245;23106;-83
2023/08/05 06:46:27;;;;;;;2.50;1.30;;;30.60;65.80;31.80;100335;;;;574863;245;23101;-84
2023/08/05 06:48:58;;;;;;;8.65;7.80;;;31.80;63.00;33.00;100334;;;;575030;246;23093;-84
2023/08/05 06:51:26;;;;;;;1.50;1.15;;;33.10;59.80;34.00;100347;;;;575025;245;23173;-82
2023/08/05 06:53:56;;;;;;;1.80;1.30;;;34.20;57.30;34.50;100344;;;;575095;246;23092;-82
2023/08/05 06:56:21;;;;;;;2.83;1.50;;;34.80;56.20;34.70;100334;;;;583950;246;26300;-82
2023/08/05 06:58:49;;;;;;;2.45;1.50;;;35.20;55.50;34.90;100341;;;;575327;246;24205;-82
2023/08/05 07:01:17;;;;;;;2.12;1.17;;;35.30;55.40;35.40;100345;;;;575457;246;23148;-83
2023/08/05 07:03:45;;;;;;;3.33;1.55;;;35.70;54.90;35.70;100335;;;;574965;246;23112;-80
2023/08/05 07:06:13;;;;;;;3.15;1.33;;;36.10;53.50;35.90;100336;;;;574938;246;24142;-81
2023/08/05 07:08:41;;;;;;;2.17;1.42;;;36.30;54.30;36.10;100335;;;;574881;246;23153;-81
2023/08/05 07:11:10;;;;;;;1.60;1.50;;;36.40;53.10;35.90;100342;;;;574767;246;23100;-81
2023/08/05 07:13:38;;;;;;;2.30;1.15;;;36.00;52.00;35.50;100342;;;;574472;245;23120;-82
2023/08/05 07:16:07;;;;;;;1.40;1.15;;;36.00;51.90;35.20;100342;;;;574723;246;23120;-83
2023/08/05 07:18:34;;;;;;;1.50;1.40;;;35.70;52.50;35.40;100345;;;;574384;246;24116;-85
2023/08/05 07:21:02;;;;;;;2.90;1.62;;;35.70;52.20;35.90;100344;;;;574853;245;23131;-82
2023/08/05 07:23:33;;;;;;;3.22;0.80;;;36.20;52.00;36.50;100341;;;;574743;245;23105;-84
2023/08/05 07:26:01;;;;;;;3.03;1.08;;;36.70;51.70;36.40;100338;;;;583476;242;26359;-81
2023/08/05 07:28:28;;;;;;;1.83;1.40;;;36.90;50.70;36.10;100335;;;;574724;245;23138;-85
2023/08/05 07:31:09;;;;;;;1.27;1.10;;;36.60;51.50;35.70;100340;;;;574182;245;24105;-81
2023/08/05 07:33:38;;;;;;;1.67;1.05;;;35.60;51.50;34.60;100344;;;;574096;246;23138;-80
2023/08/05 07:36:11;;;;;;;1.50;1.00;;;35.60;51.50;33.80;100343;;;;574558;246;23137;-80
2023/08/05 07:38:43;;;;;;;3.85;1.20;;;34.70;52.00;32.80;100334;;;;575053;244;23099;-82
2023/08/05 07:41:09;;;;;;;2.03;1.10;;;33.80;53.70;32.00;100332;;;;576379;245;23100;-79
2023/08/05 07:43:38;;;;;;;2.37;1.27;;;33.00;54.60;31.20;100326;;;;575455;245;23126;-80
2023/08/05 07:46:06;;;;;;;1.00;1.00;;;32.10;56.40;30.20;100325;;;;575600;246;23102;-80
2023/08/05 07:48:39;;;;;;;3.17;1.20;;;31.20;57.80;29.50;100331;;;;575044;245;26321;-81
2023/08/05 07:51:05;;;;;;;1.25;1.15;;;30.40;60.50;28.80;100336;;;;583517;242;23103;-80
2023/08/05 07:53:35;;;;;;;1.40;1.30;;;29.60;62.80;28.20;100317;;;;574645;246;23119;-80
2023/08/05 07:55:58;;;;;;;2.80;1.20;;;29.00;65.10;27.70;100318;;;;552665;256;24221;-80
2023/08/05 07:58:28;;;;;;;4.62;1.40;;;28.40;67.10;27.10;100322;;;;575019;245;23122;-81
2023/08/05 08:00:59;;;;;;;2.40;1.30;;;27.90;69.10;26.50;100320;;;;574309;246;23128;-81
2023/08/05 08:03:26;;;;;;;2.23;1.37;;;27.30;70.80;26.20;100326;;;;574715;245;23088;-82
2023/08/05 08:05:51;;;;;;;5.53;1.30;;;26.80;72.30;25.80;100330;;;;574606;246;24183;-80
2023/08/05 08:08:22;;;;;;;1.03;1.00;;;26.40;74.10;25.50;100335;;;;574890;245;24072;-80
2023/08/05 08:10:47;;;;;;;3.47;1.50;;;26.10;75.20;25.40;100334;;;;583627;245;23111;-81
2023/08/05 08:13:15;;;;;;;1.87;1.10;;;25.90;76.70;25.40;100333;;;;571603;248;23094;-81
2023/08/05 08:15:43;;;;;;;2.40;1.57;;;25.80;77.60;25.30;100322;;;;572001;248;24090;-79
2023/08/05 08:18:11;;;;;;;1.43;1.33;;;25.70;78.30;25.30;100331;;;;572182;248;23143;-81
2023/08/05 08:20:39;;;;;;;3.20;1.57;;;25.70;79.10;25.20;100315;;;;573510;245;23102;-80
2023/08/05 08:23:07;;;;;;;4.00;1.50;;;25.60;78.80;25.00;100321;;;;576608;245;24108;-80
2023/08/05 08:25:35;;;;;;;3.17;1.30;;;25.50;80.10;25.00;100311;;;;576936;245;23099;-81
2023/08/05 08:28:03;;;;;;;1.47;1.37;;;25.40;81.10;24.90;100307;;;;585030;245;23139;-81
2023/08/05 08:30:31;;;;;;;1.20;1.20;;;25.40;81.50;24.90;100310;;;;576270;245;23095;-83
2023/08/05 08:32:59;;;;;;;2.00;1.43;;;25.30;81.40;24.70;100315;;;;575064;246;23123;-79
2023/08/05 08:35:27;;;;;;;2.87;1.60;;;25.00;82.50;24.50;100300;;;;569885;245;35252;-81
2023/08/05 08:37:56;;;;;;;2.90;1.33;;;24.80;83.00;24.30;100309;;;;575083;246;23123;-80
2023/08/05 08:40:24;;;;;;;1.97;1.63;;;24.80;83.00;24.30;100314;;;;574307;245;24296;-80
2023/08/05 08:42:52;;;;;;;3.37;1.60;;;24.80;83.70;24.20;100317;;;;575391;246;25196;-79
2023/08/05 08:45:20;;;;;;;2.50;1.53;;;24.70;83.90;24.10;100317;;;;574833;245;23169;-83
2023/08/05 08:47:48;;;;;;;3.57;3.27;;;24.60;84.60;24.10;100317;;;;574799;245;24204;-80
2023/08/05 08:50:22;;;;;;;6.77;1.80;;;24.50;85.10;24.00;100326;;;;574699;244;23146;-81
2023/08/05 08:52:46;;;;;;;1.50;1.40;;;24.50;85.30;24.00;100316;;;;575422;246;23116;-81
2023/08/05 08:55:14;;;;;;;1.43;1.30;;;24.50;85.80;24.10;100318;;;;575881;246;23177;-81
2023/08/05 08:57:42;;;;;;;4.77;1.60;;;24.50;87.20;24.30;100316;;;;575847;246;24199;-80
2023/08/05 09:00:15;;;;;;;3.77;1.77;;;24.80;87.30;24.40;100315;;;;575197;245;23089;-80
2023/08/05 09:02:42;;;;;;;3.47;1.37;;;24.80;87.30;24.40;100306;;;;575011;245;24085;-81
2023/08/05 09:05:07;;;;;;;3.90;1.47;;;24.90;86.50;24.50;100305;;;;574742;245;23111;-82
2023/08/05 09:07:35;;;;;;;1.63;1.50;;;25.00;85.50;24.70;100302;;;;574748;245;23134;-83
2023/08/05 09:10:06;;;;;;;1.33;1.23;;;25.10;85.30;24.70;100302;;;;574833;245;23102;-81
2023/08/05 09:12:34;;;;;;;1.47;1.10;;;25.20;85.10;24.80;100300;;;;575035;245;24221;-82
2023/08/05 09:15:01;;;;;;;1.83;1.30;;;25.30;84.40;24.80;100290;;;;574787;246;23155;-83
2023/08/05 09:17:29;;;;;;;2.27;1.20;;;25.30;84.60;25.00;100288;;;;574919;246;23121;-82
2023/08/05 09:19:57;;;;;;;0.97;0.90;;;25.40;80.50;25.00;100286;;;;573595;246;23116;-81
2023/08/05 09:22:25;;;;;;;1.20;1.17;;;25.50;80.60;25.00;100290;;;;575024;246;23130;-82
2023/08/05 09:24:53;;;;;;;1.57;1.33;;;25.50;80.10;25.00;100285;;;;575412;245;24093;-81
2023/08/05 09:27:21;;;;;;;1.57;1.07;;;25.50;79.10;24.90;100279;;;;581931;245;23114;-82
2023/08/05 09:29:50;;;;;;;1.00;1.00;;;25.40;79.40;24.90;100272;;;;575347;245;23087;-83
2023/08/05 09:32:18;;;;;;;0.90;0.90;;;25.40;79.80;25.00;100275;;;;575279;245;23096;-83
2023/08/05 09:34:50;;;;;;;1.07;0.97;;;25.30;79.70;25.00;100275;;;;575066;246;24064;-84
2023/08/05 09:37:14;;;;;;;1.70;0.80;;;25.40;79.60;25.10;100272;;;;575069;246;23105;-81
2023/08/05 09:39:49;;;;;;;1.77;1.10;;;25.50;79.20;25.20;100277;;;;575045;246;24076;-83
2023/08/05 09:42:19;;;;;;;3.33;1.10;;;25.60;79.10;25.30;100282;;;;575038;246;25270;-82
2023/08/05 09:44:53;;;;;;;2.50;0.80;;;25.80;79.20;25.50;100279;;;;574896;245;23106;-81
2023/08/05 09:47:21;;;;;;;3.87;1.00;;;25.90;78.80;25.60;100272;;;;574438;246;23087;-80
2023/08/05 09:49:45;;;;;;;3.07;1.20;;;26.00;78.70;25.70;100283;;;;583323;241;25256;-81
2023/08/05 09:52:17;;;;;;;4.37;1.30;;;26.10;78.80;25.70;100278;;;;574351;246;23123;-82
2023/08/05 09:54:44;;;;;;;2.00;1.20;;;26.10;78.30;25.60;100278;;;;574328;245;23138;-84
2023/08/05 09:57:13;;;;;;;3.13;1.40;;;26.10;78.50;25.60;100277;;;;574549;245;23127;-83
2023/08/05 09:59:38;;;;;;;1.40;1.20;;;26.10;77.90;25.60;100282;;;;574139;246;23104;-83
2023/08/05 10:02:05;;;;;;;3.23;1.43;;;26.10;77.60;25.50;100284;;;;574802;244;24171;-83
2023/08/05 10:04:33;;;;;;;1.70;1.33;;;26.00;77.80;25.30;100279;;;;576140;246;23107;-83
2023/08/05 10:07:02;;;;;;;2.47;1.40;;;25.80;79.00;25.30;100280;;;;575549;246;24132;-84
2023/08/05 10:09:29;;;;;;;4.30;2.13;;;25.80;79.00;25.20;100274;;;;575124;246;23209;-85
2023/08/05 10:11:57;;;;;;;1.50;1.40;;;25.70;78.60;25.10;100278;;;;575280;246;23098;-83
2023/08/05 10:14:25;;;;;;;1.47;1.30;;;25.70;79.10;25.10;100271;;;;574940;245;23153;-83
2023/08/05 10:16:53;;;;;;;2.83;1.60;;;25.60;79.50;25.10;100278;;;;575182;245;24126;-85
2023/08/05 10:19:33;;;;;;;1.47;1.37;;;25.60;80.40;25.20;100274;;;;575014;245;23127;-84
2023/08/05 10:22:10;;;;;;;6.87;1.77;;;25.70;80.80;25.20;100272;;;;573054;247;25167;-83
2023/08/05 10:25:00;;;;;;;6.67;1.90;;;25.60;81.30;25.10;100272;;;;572000;247;23140;-83
2023/08/05 10:27:37;;;;;;;2.63;2.10;;;25.50;81.20;25.10;100282;;;;575495;245;24089;-82
2023/08/05 10:30:09;;;;;;;5.50;1.93;;;25.60;80.70;24.90;100273;;;;575399;245;24126;-82
2023/08/05 10:32:52;;;;;;;2.10;1.77;;;25.50;81.00;24.70;100276;;;;575420;245;23107;-80
2023/08/05 10:35:29;;;;;;;6.27;1.87;;;25.30;81.40;24.60;100280;;;;575259;245;23138;-82
2023/08/05 10:38:24;;;;;;;3.53;1.70;;;25.20;81.50;24.60;100271;;;;575143;245;23104;-82
2023/08/05 10:40:55;;;;;;;3.80;2.10;;;25.10;81.60;24.70;100277;;;;575258;245;23138;-80
2023/08/05 10:43:32;;;;;;;3.90;1.60;;;25.20;82.00;24.70;100268;;;;574220;246;24103;-80
2023/08/05 10:46:07;;;;;;;3.07;1.33;;;25.20;80.10;24.70;100270;;;;574861;246;23094;-80
2023/08/05 10:48:44;;;;;;;3.80;2.30;;;25.30;79.80;24.80;100261;;;;574896;245;23097;-84
2023/08/05 10:51:18;;;;;;;2.20;1.63;;;25.20;79.60;24.90;100262;;;;574813;246;23116;-84
2023/08/05 10:53:51;;;;;;;2.57;1.27;;;25.40;78.80;25.10;100259;;;;575096;245;23158;-82
2023/08/05 10:56:19;;;;;;;3.37;1.83;;;25.60;77.10;25.40;100257;;;;571784;246;24144;-80
2023/08/05 10:58:51;;;;;;;1.83;1.40;;;25.90;76.10;25.60;100267;;;;584197;243;23164;-80
2023/08/05 11:01:19;;;;;;;2.57;1.00;;;26.00;76.10;25.50;100256;;;;574513;246;23194;-84
2023/08/05 11:03:52;;;;;;;0.90;0.90;;;26.00;74.00;25.60;100256;;;;574604;245;23091;-81
2023/08/05 11:06:27;;;;;;;1.90;0.90;;;26.10;73.20;25.50;100256;;;;574357;245;24136;-80
2023/08/05 11:08:51;;;;;;;0.80;0.80;;;26.10;72.50;25.40;100253;;;;574359;245;23165;-80
2023/08/05 11:11:22;;;;;;;2.93;1.27;;;26.00;71.80;25.40;100240;;;;574623;245;24141;-82
2023/08/05 11:13:47;;;;;;;4.30;1.20;;;26.00;72.10;25.40;100240;;;;574662;244;24161;-83
2023/08/05 11:16:15;;;;;;;3.37;1.30;;;26.00;73.90;25.20;100238;;;;576368;245;23099;-81